sensor_id;sensor_type;location;lat;lon;timestamp;temperature;humidity
2639;DHT22;1329;51.384;7.122;2023-05-10T00:01:11;15.70;99.90
2639;DHT22;1329;51.384;7.122;2023-05-10T00:03:40;15.70;99.90
2639;DHT22;1329;51.384;7.122;2023-05-10T00:06:07;15.70;99.90
2639;DHT22;1329;51.384;7.122;2023-05-10T00:08:34;15.70;99.90
2639;DHT22;1329;51.384;7.122;2023-05-10T00:11:01;15.70;99.90
2639;DHT22;1329;51.384;7.122;2023-05-10T00:13:27;15.60;99.90
2639;DHT22;1329;51.384;7.122;2023-05-10T00:15:54;15.60;99.90
2639;DHT22;1329;51.384;7.122;2023-05-10T00:18:21;15.60;99.90
2639;DHT22;1329;51.384;7.122;2023-05-10T00:20:49;15.60;99.90
2639;DHT22;1329;51.384;7.122;2023-05-10T00:23:16;15.60;99.90
2639;DHT22;1329;51.384;7.122;2023-05-10T00:25:43;15.60;99.90
2639;DHT22;1329;51.384;7.122;2023-05-10T00:28:10;15.60;99.90
2639;DHT22;1329;51.384;7.122;2023-05-10T00:30:37;15.50;99.90
2639;DHT22;1329;51.384;7.122;2023-05-10T00:33:04;15.50;99.90
2639;DHT22;1329;51.384;7.122;2023-05-10T00:35:31;15.50;99.90
2639;DHT22;1329;51.384;7.122;2023-05-10T00:37:59;15.60;99.90
2639;DHT22;1329;51.384;7.122;2023-05-10T00:40:26;15.60;99.90
2639;DHT22;1329;51.384;7.122;2023-05-10T00:42:54;15.60;99.90
2639;DHT22;1329;51.384;7.122;2023-05-10T00:45:21;15.60;99.90
2639;DHT22;1329;51.384;7.122;2023-05-10T00:47:47;15.70;99.90
2639;DHT22;1329;51.384;7.122;2023-05-10T00:50:15;15.70;99.90
2639;DHT22;1329;51.384;7.122;2023-05-10T00:52:42;15.60;99.90
2639;DHT22;1329;51.384;7.122;2023-05-10T00:55:11;15.70;99.90
2639;DHT22;1329;51.384;7.122;2023-05-10T00:57:38;15.70;99.90
2639;DHT22;1329;51.384;7.122;2023-05-10T01:00:07;15.60;99.90
2639;DHT22;1329;51.384;7.122;2023-05-10T01:02:35;15.60;99.90
2639;DHT22;1329;51.384;7.122;2023-05-10T01:05:03;15.60;99.90
2639;DHT22;1329;51.384;7.122;2023-05-10T01:07:30;15.60;99.90
2639;DHT22;1329;51.384;7.122;2023-05-10T01:09:58;15.60;99.90
2639;DHT22;1329;51.384;7.122;2023-05-10T01:12:27;15.60;99.90
2639;DHT22;1329;51.384;7.122;2023-05-10T01:14:54;15.60;99.90
2639;DHT22;1329;51.384;7.122;2023-05-10T01:17:22;15.60;99.90
2639;DHT22;1329;51.384;7.122;2023-05-10T01:19:49;15.60;99.90
2639;DHT22;1329;51.384;7.122;2023-05-10T01:22:37;15.60;99.90
2639;DHT22;1329;51.384;7.122;2023-05-10T01:25:32;15.60;99.90
2639;DHT22;1329;51.384;7.122;2023-05-10T01:28:42;15.60;99.90
2639;DHT22;1329;51.384;7.122;2023-05-10T01:31:29;15.60;99.90
2639;DHT22;1329;51.384;7.122;2023-05-10T01:34:06;15.50;99.90
2639;DHT22;1329;51.384;7.122;2023-05-10T01:36:43;15.50;99.90
2639;DHT22;1329;51.384;7.122;2023-05-10T01:39:24;15.50;99.90
2639;DHT22;1329;51.384;7.122;2023-05-10T01:41:55;15.50;99.90
2639;DHT22;1329;51.384;7.122;2023-05-10T01:44:45;15.40;99.90
2639;DHT22;1329;51.384;7.122;2023-05-10T01:47:20;15.40;99.90
2639;DHT22;1329;51.384;7.122;2023-05-10T01:49:54;15.40;99.90
2639;DHT22;1329;51.384;7.122;2023-05-10T01:52:26;15.40;99.90
2639;DHT22;1329;51.384;7.122;2023-05-10T01:55:01;15.30;99.90
2639;DHT22;1329;51.384;7.122;2023-05-10T01:57:34;15.30;99.90
2639;DHT22;1329;51.384;7.122;2023-05-10T02:00:06;15.30;99.90
2639;DHT22;1329;51.384;7.122;2023-05-10T02:02:37;15.30;99.90
2639;DHT22;1329;51.384;7.122;2023-05-10T02:05:09;15.30;99.90
2639;DHT22;1329;51.384;7.122;2023-05-10T02:07:39;15.30;99.90
2639;DHT22;1329;51.384;7.122;2023-05-10T02:10:09;15.30;99.90
2639;DHT22;1329;51.384;7.122;2023-05-10T02:12:41;15.30;99.90
2639;DHT22;1329;51.384;7.122;2023-05-10T02:15:11;15.30;99.90
2639;DHT22;1329;51.384;7.122;2023-05-10T02:17:42;15.30;99.90
2639;DHT22;1329;51.384;7.122;2023-05-10T02:20:11;15.30;99.90
2639;DHT22;1329;51.384;7.122;2023-05-10T02:22:40;15.30;99.90
2639;DHT22;1329;51.384;7.122;2023-05-10T02:25:08;15.30;99.90
2639;DHT22;1329;51.384;7.122;2023-05-10T02:27:38;15.30;99.90
2639;DHT22;1329;51.384;7.122;2023-05-10T02:30:09;15.30;99.90
2639;DHT22;1329;51.384;7.122;2023-05-10T02:32:37;15.30;99.90
2639;DHT22;1329;51.384;7.122;2023-05-10T02:35:06;15.30;99.90
2639;DHT22;1329;51.384;7.122;2023-05-10T02:37:36;15.30;99.90
2639;DHT22;1329;51.384;7.122;2023-05-10T02:40:05;15.30;99.90
2639;DHT22;1329;51.384;7.122;2023-05-10T02:42:37;15.30;99.90
2639;DHT22;1329;51.384;7.122;2023-05-10T02:45:08;15.30;99.90
2639;DHT22;1329;51.384;7.122;2023-05-10T02:47:38;15.20;99.90
2639;DHT22;1329;51.384;7.122;2023-05-10T02:50:06;15.20;99.90
2639;DHT22;1329;51.384;7.122;2023-05-10T02:52:40;15.20;99.90
2639;DHT22;1329;51.384;7.122;2023-05-10T02:55:12;15.20;99.90
2639;DHT22;1329;51.384;7.122;2023-05-10T02:57:43;15.20;99.90
2639;DHT22;1329;51.384;7.122;2023-05-10T03:00:15;15.30;99.90
2639;DHT22;1329;51.384;7.122;2023-05-10T03:02:42;15.30;99.90
2639;DHT22;1329;51.384;7.122;2023-05-10T03:05:09;15.30;99.90
2639;DHT22;1329;51.384;7.122;2023-05-10T03:07:38;15.30;99.90
2639;DHT22;1329;51.384;7.122;2023-05-10T03:10:06;15.30;99.90
2639;DHT22;1329;51.384;7.122;2023-05-10T03:12:46;15.30;99.90
2639;DHT22;1329;51.384;7.122;2023-05-10T03:15:22;15.40;99.90
2639;DHT22;1329;51.384;7.122;2023-05-10T03:17:57;15.30;99.90
2639;DHT22;1329;51.384;7.122;2023-05-10T03:20:31;15.30;99.90
2639;DHT22;1329;51.384;7.122;2023-05-10T03:23:07;15.30;99.90
2639;DHT22;1329;51.384;7.122;2023-05-10T03:25:39;15.30;99.90
2639;DHT22;1329;51.384;7.122;2023-05-10T03:28:07;15.30;99.90
2639;DHT22;1329;51.384;7.122;2023-05-10T03:30:36;15.30;99.90
2639;DHT22;1329;51.384;7.122;2023-05-10T03:33:05;15.30;99.90
2639;DHT22;1329;51.384;7.122;2023-05-10T03:35:32;15.30;99.90
2639;DHT22;1329;51.384;7.122;2023-05-10T03:37:59;15.30;99.90
2639;DHT22;1329;51.384;7.122;2023-05-10T03:40:29;15.30;99.90
2639;DHT22;1329;51.384;7.122;2023-05-10T03:42:57;15.30;99.90
2639;DHT22;1329;51.384;7.122;2023-05-10T03:45:24;15.30;99.90
2639;DHT22;1329;51.384;7.122;2023-05-10T03:47:51;15.30;99.90
2639;DHT22;1329;51.384;7.122;2023-05-10T03:50:19;15.30;99.90
2639;DHT22;1329;51.384;7.122;2023-05-10T03:52:46;15.30;99.90
2639;DHT22;1329;51.384;7.122;2023-05-10T03:55:14;15.30;99.90
2639;DHT22;1329;51.384;7.122;2023-05-10T03:57:42;15.30;99.90
2639;DHT22;1329;51.384;7.122;2023-05-10T04:00:11;15.30;99.90
2639;DHT22;1329;51.384;7.122;2023-05-10T04:02:38;15.30;99.90
2639;DHT22;1329;51.384;7.122;2023-05-10T04:05:05;15.30;99.90
2639;DHT22;1329;51.384;7.122;2023-05-10T04:07:33;15.30;99.90
2639;DHT22;1329;51.384;7.122;2023-05-10T04:10:00;15.30;99.90
2639;DHT22;1329;51.384;7.122;2023-05-10T04:12:29;15.30;99.90
2639;DHT22;1329;51.384;7.122;2023-05-10T04:14:58;15.30;99.90
2639;DHT22;1329;51.384;7.122;2023-05-10T04:17:27;15.40;99.90
2639;DHT22;1329;51.384;7.122;2023-05-10T04:19:55;15.30;99.90
2639;DHT22;1329;51.384;7.122;2023-05-10T04:22:23;15.40;99.90
2639;DHT22;1329;51.384;7.122;2023-05-10T04:24:50;15.40;99.90
2639;DHT22;1329;51.384;7.122;2023-05-10T04:27:17;15.40;99.90
2639;DHT22;1329;51.384;7.122;2023-05-10T04:29:44;15.40;99.90
2639;DHT22;1329;51.384;7.122;2023-05-10T04:32:12;15.40;99.90
2639;DHT22;1329;51.384;7.122;2023-05-10T04:34:41;15.40;99.90
2639;DHT22;1329;51.384;7.122;2023-05-10T04:37:08;15.40;99.90
2639;DHT22;1329;51.384;7.122;2023-05-10T04:39:35;15.40;99.90
2639;DHT22;1329;51.384;7.122;2023-05-10T04:42:03;15.40;99.90
2639;DHT22;1329;51.384;7.122;2023-05-10T04:44:31;15.40;99.90
2639;DHT22;1329;51.384;7.122;2023-05-10T04:46:59;15.40;99.90
2639;DHT22;1329;51.384;7.122;2023-05-10T04:49:29;15.40;99.90
2639;DHT22;1329;51.384;7.122;2023-05-10T04:51:56;15.40;99.90
2639;DHT22;1329;51.384;7.122;2023-05-10T04:54:23;15.40;99.90
2639;DHT22;1329;51.384;7.122;2023-05-10T04:56:50;15.30;99.90
2639;DHT22;1329;51.384;7.122;2023-05-10T04:59:18;15.30;99.90
2639;DHT22;1329;51.384;7.122;2023-05-10T05:01:45;15.30;99.90
2639;DHT22;1329;51.384;7.122;2023-05-10T05:04:11;15.30;99.90
2639;DHT22;1329;51.384;7.122;2023-05-10T05:06:41;15.30;99.90
2639;DHT22;1329;51.384;7.122;2023-05-10T05:09:08;15.40;99.90
2639;DHT22;1329;51.384;7.122;2023-05-10T05:11:37;15.30;99.90
2639;DHT22;1329;51.384;7.122;2023-05-10T05:14:05;15.30;99.90
2639;DHT22;1329;51.384;7.122;2023-05-10T05:16:32;15.30;99.90
2639;DHT22;1329;51.384;7.122;2023-05-10T05:19:00;15.30;99.90
2639;DHT22;1329;51.384;7.122;2023-05-10T05:21:27;15.40;99.90
2639;DHT22;1329;51.384;7.122;2023-05-10T05:23:56;15.40;99.90
2639;DHT22;1329;51.384;7.122;2023-05-10T05:26:23;15.30;99.90
2639;DHT22;1329;51.384;7.122;2023-05-10T05:28:50;15.40;99.90
2639;DHT22;1329;51.384;7.122;2023-05-10T05:31:20;15.40;99.90
2639;DHT22;1329;51.384;7.122;2023-05-10T05:33:47;15.40;99.90
2639;DHT22;1329;51.384;7.122;2023-05-10T05:36:14;15.40;99.90
2639;DHT22;1329;51.384;7.122;2023-05-10T05:38:42;15.50;99.90
2639;DHT22;1329;51.384;7.122;2023-05-10T05:41:11;15.50;99.90
2639;DHT22;1329;51.384;7.122;2023-05-10T05:43:38;15.50;99.90
2639;DHT22;1329;51.384;7.122;2023-05-10T05:46:05;15.50;99.90
2639;DHT22;1329;51.384;7.122;2023-05-10T05:48:32;15.50;99.90
2639;DHT22;1329;51.384;7.122;2023-05-10T05:50:59;15.60;99.90
2639;DHT22;1329;51.384;7.122;2023-05-10T05:53:27;15.60;99.90
2639;DHT22;1329;51.384;7.122;2023-05-10T05:55:54;15.60;99.90
2639;DHT22;1329;51.384;7.122;2023-05-10T05:58:25;15.60;99.90
2639;DHT22;1329;51.384;7.122;2023-05-10T06:00:52;15.60;99.90
2639;DHT22;1329;51.384;7.122;2023-05-10T06:03:20;15.70;99.90
2639;DHT22;1329;51.384;7.122;2023-05-10T06:05:47;15.70;99.90
2639;DHT22;1329;51.384;7.122;2023-05-10T06:08:14;15.70;99.90
2639;DHT22;1329;51.384;7.122;2023-05-10T06:10:41;15.70;99.90
2639;DHT22;1329;51.384;7.122;2023-05-10T06:13:08;15.80;99.90
2639;DHT22;1329;51.384;7.122;2023-05-10T06:15:37;15.80;99.90
2639;DHT22;1329;51.384;7.122;2023-05-10T06:18:04;15.90;99.90
2639;DHT22;1329;51.384;7.122;2023-05-10T06:20:31;15.90;99.90
2639;DHT22;1329;51.384;7.122;2023-05-10T06:22:58;15.90;99.90
2639;DHT22;1329;51.384;7.122;2023-05-10T06:25:25;15.90;99.90
2639;DHT22;1329;51.384;7.122;2023-05-10T06:27:52;16.00;99.90
2639;DHT22;1329;51.384;7.122;2023-05-10T06:30:24;16.00;99.90
2639;DHT22;1329;51.384;7.122;2023-05-10T06:32:55;16.00;99.90
2639;DHT22;1329;51.384;7.122;2023-05-10T06:35:23;16.00;99.90
2639;DHT22;1329;51.384;7.122;2023-05-10T06:37:50;16.00;99.90
2639;DHT22;1329;51.384;7.122;2023-05-10T06:40:18;16.10;99.90
2639;DHT22;1329;51.384;7.122;2023-05-10T06:42:45;16.10;99.90
2639;DHT22;1329;51.384;7.122;2023-05-10T06:45:13;16.10;99.90
2639;DHT22;1329;51.384;7.122;2023-05-10T06:47:40;16.20;99.90
2639;DHT22;1329;51.384;7.122;2023-05-10T06:50:10;16.10;99.90
2639;DHT22;1329;51.384;7.122;2023-05-10T06:52:37;16.20;99.90
2639;DHT22;1329;51.384;7.122;2023-05-10T06:55:06;16.10;99.90
2639;DHT22;1329;51.384;7.122;2023-05-10T06:57:34;16.20;99.90
2639;DHT22;1329;51.384;7.122;2023-05-10T07:00:04;16.20;99.90
2639;DHT22;1329;51.384;7.122;2023-05-10T07:02:32;16.20;99.90
2639;DHT22;1329;51.384;7.122;2023-05-10T07:04:59;16.30;99.90
2639;DHT22;1329;51.384;7.122;2023-05-10T07:07:27;16.30;99.90
2639;DHT22;1329;51.384;7.122;2023-05-10T07:09:55;16.30;99.90
2639;DHT22;1329;51.384;7.122;2023-05-10T07:12:23;16.40;99.90
2639;DHT22;1329;51.384;7.122;2023-05-10T07:14:50;16.40;99.90
2639;DHT22;1329;51.384;7.122;2023-05-10T07:17:17;16.50;99.90
2639;DHT22;1329;51.384;7.122;2023-05-10T07:19:44;16.50;99.90
2639;DHT22;1329;51.384;7.122;2023-05-10T07:22:11;16.50;99.90
2639;DHT22;1329;51.384;7.122;2023-05-10T07:24:40;16.60;99.90
2639;DHT22;1329;51.384;7.122;2023-05-10T07:27:07;16.60;99.90
2639;DHT22;1329;51.384;7.122;2023-05-10T07:29:34;16.60;99.90
2639;DHT22;1329;51.384;7.122;2023-05-10T07:32:01;16.60;99.90
2639;DHT22;1329;51.384;7.122;2023-05-10T07:34:28;16.60;99.90
2639;DHT22;1329;51.384;7.122;2023-05-10T07:36:58;16.70;99.90
2639;DHT22;1329;51.384;7.122;2023-05-10T07:39:25;16.70;99.90
2639;DHT22;1329;51.384;7.122;2023-05-10T07:41:54;16.80;99.90
2639;DHT22;1329;51.384;7.122;2023-05-10T07:44:22;16.80;99.90
2639;DHT22;1329;51.384;7.122;2023-05-10T07:46:49;16.70;99.90
2639;DHT22;1329;51.384;7.122;2023-05-10T07:49:16;16.70;99.90
2639;DHT22;1329;51.384;7.122;2023-05-10T07:51:43;16.60;99.90
2639;DHT22;1329;51.384;7.122;2023-05-10T07:54:10;16.70;99.90
2639;DHT22;1329;51.384;7.122;2023-05-10T07:56:38;16.60;99.90
2639;DHT22;1329;51.384;7.122;2023-05-10T07:59:08;16.60;99.90
2639;DHT22;1329;51.384;7.122;2023-05-10T08:01:36;16.60;99.90
2639;DHT22;1329;51.384;7.122;2023-05-10T08:04:03;16.50;99.90
2639;DHT22;1329;51.384;7.122;2023-05-10T08:06:30;16.60;99.90
2639;DHT22;1329;51.384;7.122;2023-05-10T08:08:57;16.60;99.90
2639;DHT22;1329;51.384;7.122;2023-05-10T08:11:24;16.60;99.90
2639;DHT22;1329;51.384;7.122;2023-05-10T08:13:53;16.60;99.90
2639;DHT22;1329;51.384;7.122;2023-05-10T08:16:22;16.60;99.90
2639;DHT22;1329;51.384;7.122;2023-05-10T08:18:49;16.60;99.90
2639;DHT22;1329;51.384;7.122;2023-05-10T08:21:17;16.60;99.90
2639;DHT22;1329;51.384;7.122;2023-05-10T08:23:44;16.70;99.90
2639;DHT22;1329;51.384;7.122;2023-05-10T08:26:11;16.70;99.90
2639;DHT22;1329;51.384;7.122;2023-05-10T08:28:38;16.70;99.90
2639;DHT22;1329;51.384;7.122;2023-05-10T08:31:05;16.80;99.90
2639;DHT22;1329;51.384;7.122;2023-05-10T08:33:34;16.80;99.90
2639;DHT22;1329;51.384;7.122;2023-05-10T08:36:01;16.90;99.90
2639;DHT22;1329;51.384;7.122;2023-05-10T08:38:28;16.90;99.90
2639;DHT22;1329;51.384;7.122;2023-05-10T08:40:56;16.90;99.90
2639;DHT22;1329;51.384;7.122;2023-05-10T08:43:26;16.90;99.90
2639;DHT22;1329;51.384;7.122;2023-05-10T08:45:55;17.00;99.90
2639;DHT22;1329;51.384;7.122;2023-05-10T08:48:23;17.00;99.90
2639;DHT22;1329;51.384;7.122;2023-05-10T08:50:53;17.10;99.90
2639;DHT22;1329;51.384;7.122;2023-05-10T08:53:24;17.10;99.90
2639;DHT22;1329;51.384;7.122;2023-05-10T08:55:52;17.20;99.90
2639;DHT22;1329;51.384;7.122;2023-05-10T08:58:19;17.20;99.90
2639;DHT22;1329;51.384;7.122;2023-05-10T09:00:48;17.30;99.90
2639;DHT22;1329;51.384;7.122;2023-05-10T09:03:16;17.30;99.90
2639;DHT22;1329;51.384;7.122;2023-05-10T09:05:45;17.40;99.90
2639;DHT22;1329;51.384;7.122;2023-05-10T09:08:13;17.40;99.90
2639;DHT22;1329;51.384;7.122;2023-05-10T09:10:42;17.40;99.90
2639;DHT22;1329;51.384;7.122;2023-05-10T09:13:10;17.50;99.90
2639;DHT22;1329;51.384;7.122;2023-05-10T09:15:38;17.60;99.90
2639;DHT22;1329;51.384;7.122;2023-05-10T09:18:05;17.60;99.90
2639;DHT22;1329;51.384;7.122;2023-05-10T09:20:32;17.70;99.90
2639;DHT22;1329;51.384;7.122;2023-05-10T09:22:59;17.80;99.90
2639;DHT22;1329;51.384;7.122;2023-05-10T09:25:27;17.90;99.90
2639;DHT22;1329;51.384;7.122;2023-05-10T09:27:55;17.90;99.90
2639;DHT22;1329;51.384;7.122;2023-05-10T09:30:26;17.90;99.90
2639;DHT22;1329;51.384;7.122;2023-05-10T09:32:54;17.90;99.90
2639;DHT22;1329;51.384;7.122;2023-05-10T09:35:24;17.90;99.90
2639;DHT22;1329;51.384;7.122;2023-05-10T09:37:53;17.90;99.90
2639;DHT22;1329;51.384;7.122;2023-05-10T09:40:22;17.90;99.90
2639;DHT22;1329;51.384;7.122;2023-05-10T09:42:55;17.90;99.90
2639;DHT22;1329;51.384;7.122;2023-05-10T09:45:25;17.90;99.90
2639;DHT22;1329;51.384;7.122;2023-05-10T09:47:53;17.80;99.90
2639;DHT22;1329;51.384;7.122;2023-05-10T09:50:20;17.80;99.90
2639;DHT22;1329;51.384;7.122;2023-05-10T09:52:52;17.80;99.90
2639;DHT22;1329;51.384;7.122;2023-05-10T09:55:21;17.80;99.90
2639;DHT22;1329;51.384;7.122;2023-05-10T09:58:00;17.80;99.90
2639;DHT22;1329;51.384;7.122;2023-05-10T10:00:29;17.70;99.90
2639;DHT22;1329;51.384;7.122;2023-05-10T10:03:02;17.70;99.90
2639;DHT22;1329;51.384;7.122;2023-05-10T10:05:30;17.60;99.90
2639;DHT22;1329;51.384;7.122;2023-05-10T10:07:58;17.60;99.90
2639;DHT22;1329;51.384;7.122;2023-05-10T10:10:26;17.50;99.90
2639;DHT22;1329;51.384;7.122;2023-05-10T10:12:53;17.50;99.90
2639;DHT22;1329;51.384;7.122;2023-05-10T10:15:23;17.40;99.90
2639;DHT22;1329;51.384;7.122;2023-05-10T10:17:51;17.40;99.90
2639;DHT22;1329;51.384;7.122;2023-05-10T10:20:20;17.40;99.90
2639;DHT22;1329;51.384;7.122;2023-05-10T10:22:49;17.40;99.90
2639;DHT22;1329;51.384;7.122;2023-05-10T10:25:17;17.40;99.90
2639;DHT22;1329;51.384;7.122;2023-05-10T10:28:04;17.50;99.90
2639;DHT22;1329;51.384;7.122;2023-05-10T10:30:42;17.60;99.90
2639;DHT22;1329;51.384;7.122;2023-05-10T10:33:24;17.70;99.90
2639;DHT22;1329;51.384;7.122;2023-05-10T10:35:59;17.80;99.90
2639;DHT22;1329;51.384;7.122;2023-05-10T10:38:36;17.90;99.90
2639;DHT22;1329;51.384;7.122;2023-05-10T10:41:10;18.00;99.90
2639;DHT22;1329;51.384;7.122;2023-05-10T10:43:38;18.00;99.90
2639;DHT22;1329;51.384;7.122;2023-05-10T10:46:11;18.10;99.90
2639;DHT22;1329;51.384;7.122;2023-05-10T10:48:40;18.10;99.90
2639;DHT22;1329;51.384;7.122;2023-05-10T10:51:07;18.10;99.90
2639;DHT22;1329;51.384;7.122;2023-05-10T10:53:34;18.20;99.90
2639;DHT22;1329;51.384;7.122;2023-05-10T10:56:06;18.20;99.90
2639;DHT22;1329;51.384;7.122;2023-05-10T10:58:35;18.30;99.90
2639;DHT22;1329;51.384;7.122;2023-05-10T11:01:13;18.30;99.90
2639;DHT22;1329;51.384;7.122;2023-05-10T11:03:54;18.40;99.90
2639;DHT22;1329;51.384;7.122;2023-05-10T11:06:43;18.50;99.90
2639;DHT22;1329;51.384;7.122;2023-05-10T11:09:11;18.40;99.90
2639;DHT22;1329;51.384;7.122;2023-05-10T11:11:49;18.40;99.90
2639;DHT22;1329;51.384;7.122;2023-05-10T11:14:21;18.40;99.90
2639;DHT22;1329;51.384;7.122;2023-05-10T11:16:50;18.30;99.90
2639;DHT22;1329;51.384;7.122;2023-05-10T11:19:18;18.30;99.90
2639;DHT22;1329;51.384;7.122;2023-05-10T11:21:46;18.20;99.90
2639;DHT22;1329;51.384;7.122;2023-05-10T11:24:15;18.20;99.90
2639;DHT22;1329;51.384;7.122;2023-05-10T11:26:44;18.10;99.90
2639;DHT22;1329;51.384;7.122;2023-05-10T11:29:12;18.00;99.90
2639;DHT22;1329;51.384;7.122;2023-05-10T11:31:43;18.00;99.90
2639;DHT22;1329;51.384;7.122;2023-05-10T11:34:23;18.00;99.90
2639;DHT22;1329;51.384;7.122;2023-05-10T11:36:51;18.00;99.90
2639;DHT22;1329;51.384;7.122;2023-05-10T11:39:19;18.00;99.90
2639;DHT22;1329;51.384;7.122;2023-05-10T11:41:49;18.00;99.90
2639;DHT22;1329;51.384;7.122;2023-05-10T11:44:17;18.10;99.90
2639;DHT22;1329;51.384;7.122;2023-05-10T11:46:44;18.20;99.90
2639;DHT22;1329;51.384;7.122;2023-05-10T11:49:12;18.20;99.90
2639;DHT22;1329;51.384;7.122;2023-05-10T11:51:39;18.20;99.90
2639;DHT22;1329;51.384;7.122;2023-05-10T11:54:09;18.30;99.90
2639;DHT22;1329;51.384;7.122;2023-05-10T11:56:37;18.40;99.90
2639;DHT22;1329;51.384;7.122;2023-05-10T11:59:05;18.40;99.90
2639;DHT22;1329;51.384;7.122;2023-05-10T12:01:33;18.30;99.90
2639;DHT22;1329;51.384;7.122;2023-05-10T12:04:01;18.30;99.90
2639;DHT22;1329;51.384;7.122;2023-05-10T12:06:32;18.30;99.90
2639;DHT22;1329;51.384;7.122;2023-05-10T12:09:06;18.30;99.90
2639;DHT22;1329;51.384;7.122;2023-05-10T12:11:37;18.20;99.90
2639;DHT22;1329;51.384;7.122;2023-05-10T12:14:05;18.20;99.90
2639;DHT22;1329;51.384;7.122;2023-05-10T12:16:32;18.20;99.90
2639;DHT22;1329;51.384;7.122;2023-05-10T12:19:00;18.20;99.90
2639;DHT22;1329;51.384;7.122;2023-05-10T12:21:29;18.20;99.90
2639;DHT22;1329;51.384;7.122;2023-05-10T12:24:00;18.20;99.90
2639;DHT22;1329;51.384;7.122;2023-05-10T12:26:29;18.20;99.90
2639;DHT22;1329;51.384;7.122;2023-05-10T12:29:12;18.30;99.90
2639;DHT22;1329;51.384;7.122;2023-05-10T12:31:51;18.30;99.90
2639;DHT22;1329;51.384;7.122;2023-05-10T12:34:25;18.40;99.90
2639;DHT22;1329;51.384;7.122;2023-05-10T12:36:54;18.50;99.90
2639;DHT22;1329;51.384;7.122;2023-05-10T12:39:22;18.50;99.90
2639;DHT22;1329;51.384;7.122;2023-05-10T12:41:50;18.50;99.90
2639;DHT22;1329;51.384;7.122;2023-05-10T12:44:18;18.60;99.90
2639;DHT22;1329;51.384;7.122;2023-05-10T12:46:45;18.60;99.90
2639;DHT22;1329;51.384;7.122;2023-05-10T12:49:12;18.70;99.90
2639;DHT22;1329;51.384;7.122;2023-05-10T12:51:39;18.70;99.90
2639;DHT22;1329;51.384;7.122;2023-05-10T12:54:07;18.70;99.90
2639;DHT22;1329;51.384;7.122;2023-05-10T12:56:34;18.70;99.90
2639;DHT22;1329;51.384;7.122;2023-05-10T12:59:02;18.80;99.90
2639;DHT22;1329;51.384;7.122;2023-05-10T13:01:29;18.80;99.90
2639;DHT22;1329;51.384;7.122;2023-05-10T13:03:56;18.90;99.90
2639;DHT22;1329;51.384;7.122;2023-05-10T13:06:23;18.90;99.90
2639;DHT22;1329;51.384;7.122;2023-05-10T13:08:50;19.00;99.90
2639;DHT22;1329;51.384;7.122;2023-05-10T13:11:18;19.10;99.90
2639;DHT22;1329;51.384;7.122;2023-05-10T13:13:46;19.20;99.90
2639;DHT22;1329;51.384;7.122;2023-05-10T13:16:13;19.30;99.90
2639;DHT22;1329;51.384;7.122;2023-05-10T13:18:40;19.40;99.90
2639;DHT22;1329;51.384;7.122;2023-05-10T13:21:07;19.40;99.90
2639;DHT22;1329;51.384;7.122;2023-05-10T13:23:35;19.50;99.90
2639;DHT22;1329;51.384;7.122;2023-05-10T13:26:02;19.50;99.90
2639;DHT22;1329;51.384;7.122;2023-05-10T13:28:30;19.60;99.90
2639;DHT22;1329;51.384;7.122;2023-05-10T13:30:57;19.70;99.90
2639;DHT22;1329;51.384;7.122;2023-05-10T13:33:25;19.80;99.90
2639;DHT22;1329;51.384;7.122;2023-05-10T13:35:52;19.90;99.90
2639;DHT22;1329;51.384;7.122;2023-05-10T13:38:19;19.90;99.90
2639;DHT22;1329;51.384;7.122;2023-05-10T13:40:46;19.90;99.90
2639;DHT22;1329;51.384;7.122;2023-05-10T13:43:18;19.90;99.90
2639;DHT22;1329;51.384;7.122;2023-05-10T13:45:46;20.00;99.90
2639;DHT22;1329;51.384;7.122;2023-05-10T13:48:13;20.10;99.90
2639;DHT22;1329;51.384;7.122;2023-05-10T13:50:40;20.20;99.90
2639;DHT22;1329;51.384;7.122;2023-05-10T13:53:10;20.30;99.90
2639;DHT22;1329;51.384;7.122;2023-05-10T13:55:39;20.40;99.90
2639;DHT22;1329;51.384;7.122;2023-05-10T13:58:07;20.50;99.90
2639;DHT22;1329;51.384;7.122;2023-05-10T14:00:34;20.50;99.90
2639;DHT22;1329;51.384;7.122;2023-05-10T14:03:02;20.50;99.90
2639;DHT22;1329;51.384;7.122;2023-05-10T14:07:57;20.50;99.90
2639;DHT22;1329;51.384;7.122;2023-05-10T14:10:27;20.40;99.90
2639;DHT22;1329;51.384;7.122;2023-05-10T14:12:54;20.40;99.90
2639;DHT22;1329;51.384;7.122;2023-05-10T14:15:24;20.30;99.90
2639;DHT22;1329;51.384;7.122;2023-05-10T14:17:51;20.30;99.90
2639;DHT22;1329;51.384;7.122;2023-05-10T14:20:21;20.20;99.90
2639;DHT22;1329;51.384;7.122;2023-05-10T14:22:48;20.10;99.90
2639;DHT22;1329;51.384;7.122;2023-05-10T14:25:15;20.10;99.90
2639;DHT22;1329;51.384;7.122;2023-05-10T14:27:46;20.10;99.90
2639;DHT22;1329;51.384;7.122;2023-05-10T14:30:14;20.10;99.90
2639;DHT22;1329;51.384;7.122;2023-05-10T14:32:41;20.10;99.90
2639;DHT22;1329;51.384;7.122;2023-05-10T14:35:09;20.00;99.90
2639;DHT22;1329;51.384;7.122;2023-05-10T14:37:37;20.00;99.90
2639;DHT22;1329;51.384;7.122;2023-05-10T14:40:06;20.00;99.90
2639;DHT22;1329;51.384;7.122;2023-05-10T14:42:34;19.90;99.90
2639;DHT22;1329;51.384;7.122;2023-05-10T14:45:01;19.90;99.90
2639;DHT22;1329;51.384;7.122;2023-05-10T14:47:29;19.80;99.90
2639;DHT22;1329;51.384;7.122;2023-05-10T14:49:56;19.80;99.90
2639;DHT22;1329;51.384;7.122;2023-05-10T14:52:23;19.80;99.90
2639;DHT22;1329;51.384;7.122;2023-05-10T14:54:52;19.80;99.90
2639;DHT22;1329;51.384;7.122;2023-05-10T14:57:19;19.80;99.90
2639;DHT22;1329;51.384;7.122;2023-05-10T14:59:46;19.90;99.90
2639;DHT22;1329;51.384;7.122;2023-05-10T15:02:16;20.00;99.90
2639;DHT22;1329;51.384;7.122;2023-05-10T15:04:43;20.00;99.90
2639;DHT22;1329;51.384;7.122;2023-05-10T15:07:11;20.10;99.90
2639;DHT22;1329;51.384;7.122;2023-05-10T15:09:40;20.30;99.90
2639;DHT22;1329;51.384;7.122;2023-05-10T15:12:08;20.30;99.90
2639;DHT22;1329;51.384;7.122;2023-05-10T15:14:35;20.40;99.90
2639;DHT22;1329;51.384;7.122;2023-05-10T15:17:02;20.50;99.90
2639;DHT22;1329;51.384;7.122;2023-05-10T15:19:29;20.60;99.90
2639;DHT22;1329;51.384;7.122;2023-05-10T15:21:58;20.60;99.90
2639;DHT22;1329;51.384;7.122;2023-05-10T15:24:25;20.60;99.90
2639;DHT22;1329;51.384;7.122;2023-05-10T15:26:52;20.70;99.90
2639;DHT22;1329;51.384;7.122;2023-05-10T15:29:21;20.80;99.90
2639;DHT22;1329;51.384;7.122;2023-05-10T15:31:48;20.90;99.90
2639;DHT22;1329;51.384;7.122;2023-05-10T15:34:16;21.10;99.90
2639;DHT22;1329;51.384;7.122;2023-05-10T15:36:44;21.20;99.90
2639;DHT22;1329;51.384;7.122;2023-05-10T15:39:11;21.30;99.90
2639;DHT22;1329;51.384;7.122;2023-05-10T15:41:38;21.50;99.90
2639;DHT22;1329;51.384;7.122;2023-05-10T15:44:08;21.60;99.90
2639;DHT22;1329;51.384;7.122;2023-05-10T15:46:36;21.70;99.90
2639;DHT22;1329;51.384;7.122;2023-05-10T15:49:04;21.80;99.90
2639;DHT22;1329;51.384;7.122;2023-05-10T15:51:32;22.00;99.90
2639;DHT22;1329;51.384;7.122;2023-05-10T15:54:02;22.00;99.90
2639;DHT22;1329;51.384;7.122;2023-05-10T15:56:31;22.10;99.90
2639;DHT22;1329;51.384;7.122;2023-05-10T15:58:59;22.10;99.90
2639;DHT22;1329;51.384;7.122;2023-05-10T16:01:26;22.10;99.90
2639;DHT22;1329;51.384;7.122;2023-05-10T16:03:56;22.00;99.90
2639;DHT22;1329;51.384;7.122;2023-05-10T16:06:29;22.10;99.90
2639;DHT22;1329;51.384;7.122;2023-05-10T16:08:59;22.00;99.90
2639;DHT22;1329;51.384;7.122;2023-05-10T16:11:28;22.00;99.90
2639;DHT22;1329;51.384;7.122;2023-05-10T16:13:55;22.00;99.90
2639;DHT22;1329;51.384;7.122;2023-05-10T16:16:22;22.00;99.90